sensor_id;sensor_type;location;lat;lon;timestamp;P1;durP1;ratioP1;P2;durP2;ratioP2
7017;SDS011;3549;42.162;24.726;2023-04-15T00:01:06;11.33;;;6.83;;
7017;SDS011;3549;42.162;24.726;2023-04-15T00:03:32;11.00;;;7.17;;
7017;SDS011;3549;42.162;24.726;2023-04-15T00:05:58;13.23;;;7.80;;
7017;SDS011;3549;42.162;24.726;2023-04-15T00:08:23;12.77;;;7.00;;
7017;SDS011;3549;42.162;24.726;2023-04-15T00:10:49;12.03;;;7.20;;
7017;SDS011;3549;42.162;24.726;2023-04-15T00:13:14;13.77;;;7.43;;
7017;SDS011;3549;42.162;24.726;2023-04-15T00:15:40;11.73;;;7.00;;
7017;SDS011;3549;42.162;24.726;2023-04-15T00:18:06;11.50;;;7.20;;
7017;SDS011;3549;42.162;24.726;2023-04-15T00:20:32;13.20;;;7.70;;
7017;SDS011;3549;42.162;24.726;2023-04-15T00:22:58;11.40;;;7.27;;
7017;SDS011;3549;42.162;24.726;2023-04-15T00:25:24;12.87;;;7.40;;
7017;SDS011;3549;42.162;24.726;2023-04-15T00:27:50;12.03;;;7.57;;
7017;SDS011;3549;42.162;24.726;2023-04-15T00:30:15;15.30;;;8.50;;
7017;SDS011;3549;42.162;24.726;2023-04-15T00:32:41;14.47;;;8.30;;
7017;SDS011;3549;42.162;24.726;2023-04-15T00:35:06;13.00;;;8.10;;
7017;SDS011;3549;42.162;24.726;2023-04-15T00:37:33;14.87;;;8.30;;
7017;SDS011;3549;42.162;24.726;2023-04-15T00:39:59;12.73;;;7.90;;
7017;SDS011;3549;42.162;24.726;2023-04-15T00:42:25;12.30;;;7.43;;
7017;SDS011;3549;42.162;24.726;2023-04-15T00:44:51;12.07;;;7.50;;
7017;SDS011;3549;42.162;24.726;2023-04-15T00:47:17;11.17;;;7.20;;
7017;SDS011;3549;42.162;24.726;2023-04-15T00:49:43;14.87;;;6.90;;
7017;SDS011;3549;42.162;24.726;2023-04-15T00:52:08;10.83;;;7.03;;
7017;SDS011;3549;42.162;24.726;2023-04-15T00:54:33;12.73;;;6.87;;
7017;SDS011;3549;42.162;24.726;2023-04-15T00:56:59;12.23;;;7.13;;
7017;SDS011;3549;42.162;24.726;2023-04-15T00:59:25;11.47;;;7.00;;
7017;SDS011;3549;42.162;24.726;2023-04-15T01:01:51;11.97;;;7.60;;
7017;SDS011;3549;42.162;24.726;2023-04-15T01:04:17;12.77;;;6.73;;
7017;SDS011;3549;42.162;24.726;2023-04-15T01:06:43;12.77;;;6.90;;
7017;SDS011;3549;42.162;24.726;2023-04-15T01:09:09;11.57;;;7.60;;
7017;SDS011;3549;42.162;24.726;2023-04-15T01:11:35;11.97;;;7.00;;
7017;SDS011;3549;42.162;24.726;2023-04-15T01:14:01;12.43;;;7.03;;
7017;SDS011;3549;42.162;24.726;2023-04-15T01:16:27;11.83;;;7.43;;
7017;SDS011;3549;42.162;24.726;2023-04-15T01:18:52;14.60;;;8.60;;
7017;SDS011;3549;42.162;24.726;2023-04-15T01:21:18;23.80;;;10.93;;
7017;SDS011;3549;42.162;24.726;2023-04-15T01:23:44;15.70;;;8.67;;
7017;SDS011;3549;42.162;24.726;2023-04-15T01:26:12;13.33;;;8.00;;
7017;SDS011;3549;42.162;24.726;2023-04-15T01:28:38;13.50;;;7.50;;
7017;SDS011;3549;42.162;24.726;2023-04-15T01:33:37;12.27;;;7.27;;
7017;SDS011;3549;42.162;24.726;2023-04-15T01:36:03;10.60;;;7.30;;
7017;SDS011;3549;42.162;24.726;2023-04-15T01:38:30;10.97;;;7.47;;
7017;SDS011;3549;42.162;24.726;2023-04-15T01:40:56;20.20;;;10.37;;
7017;SDS011;3549;42.162;24.726;2023-04-15T01:43:22;12.80;;;8.20;;
7017;SDS011;3549;42.162;24.726;2023-04-15T01:45:48;8.83;;;6.00;;
7017;SDS011;3549;42.162;24.726;2023-04-15T01:48:13;11.87;;;6.63;;
7017;SDS011;3549;42.162;24.726;2023-04-15T01:50:38;10.33;;;6.80;;
7017;SDS011;3549;42.162;24.726;2023-04-15T01:53:04;9.57;;;6.47;;
7017;SDS011;3549;42.162;24.726;2023-04-15T01:55:29;11.00;;;6.60;;
7017;SDS011;3549;42.162;24.726;2023-04-15T01:57:56;10.27;;;6.23;;
7017;SDS011;3549;42.162;24.726;2023-04-15T02:00:21;12.83;;;6.77;;
7017;SDS011;3549;42.162;24.726;2023-04-15T02:02:47;9.30;;;6.20;;
7017;SDS011;3549;42.162;24.726;2023-04-15T02:05:13;10.77;;;6.07;;
7017;SDS011;3549;42.162;24.726;2023-04-15T02:07:40;11.37;;;6.20;;
7017;SDS011;3549;42.162;24.726;2023-04-15T02:10:06;8.17;;;5.20;;
7017;SDS011;3549;42.162;24.726;2023-04-15T02:12:33;9.57;;;5.60;;
7017;SDS011;3549;42.162;24.726;2023-04-15T02:14:59;9.87;;;5.53;;
7017;SDS011;3549;42.162;24.726;2023-04-15T02:17:24;8.50;;;5.27;;
7017;SDS011;3549;42.162;24.726;2023-04-15T02:19:50;7.07;;;5.00;;
7017;SDS011;3549;42.162;24.726;2023-04-15T02:22:15;8.60;;;5.30;;
7017;SDS011;3549;42.162;24.726;2023-04-15T02:24:42;9.40;;;5.10;;
7017;SDS011;3549;42.162;24.726;2023-04-15T02:27:08;8.43;;;5.03;;
7017;SDS011;3549;42.162;24.726;2023-04-15T02:29:34;8.23;;;4.90;;
7017;SDS011;3549;42.162;24.726;2023-04-15T02:31:59;6.97;;;4.37;;
7017;SDS011;3549;42.162;24.726;2023-04-15T02:34:25;8.53;;;4.70;;
7017;SDS011;3549;42.162;24.726;2023-04-15T02:36:51;7.77;;;4.33;;
7017;SDS011;3549;42.162;24.726;2023-04-15T02:39:21;7.17;;;4.60;;
7017;SDS011;3549;42.162;24.726;2023-04-15T02:41:47;7.00;;;4.03;;
7017;SDS011;3549;42.162;24.726;2023-04-15T02:44:16;8.27;;;4.43;;
7017;SDS011;3549;42.162;24.726;2023-04-15T02:46:44;7.03;;;4.33;;
7017;SDS011;3549;42.162;24.726;2023-04-15T02:49:16;7.80;;;5.00;;
7017;SDS011;3549;42.162;24.726;2023-04-15T02:51:41;8.70;;;4.40;;
7017;SDS011;3549;42.162;24.726;2023-04-15T02:54:07;6.87;;;4.63;;
7017;SDS011;3549;42.162;24.726;2023-04-15T02:56:32;13.70;;;6.10;;
7017;SDS011;3549;42.162;24.726;2023-04-15T02:58:58;16.03;;;7.83;;
7017;SDS011;3549;42.162;24.726;2023-04-15T03:01:24;10.37;;;5.93;;
7017;SDS011;3549;42.162;24.726;2023-04-15T03:03:51;10.57;;;6.73;;
7017;SDS011;3549;42.162;24.726;2023-04-15T03:06:16;9.50;;;5.73;;
7017;SDS011;3549;42.162;24.726;2023-04-15T03:08:42;10.97;;;6.00;;
7017;SDS011;3549;42.162;24.726;2023-04-15T03:11:07;13.90;;;6.50;;
7017;SDS011;3549;42.162;24.726;2023-04-15T03:13:32;9.43;;;4.70;;
7017;SDS011;3549;42.162;24.726;2023-04-15T03:15:58;8.20;;;4.77;;
7017;SDS011;3549;42.162;24.726;2023-04-15T03:18:23;8.23;;;3.70;;
7017;SDS011;3549;42.162;24.726;2023-04-15T03:20:48;6.50;;;3.67;;
7017;SDS011;3549;42.162;24.726;2023-04-15T03:23:14;7.27;;;4.50;;
7017;SDS011;3549;42.162;24.726;2023-04-15T03:25:39;6.47;;;4.20;;
7017;SDS011;3549;42.162;24.726;2023-04-15T03:28:05;10.17;;;4.70;;
7017;SDS011;3549;42.162;24.726;2023-04-15T03:30:31;8.93;;;4.27;;
7017;SDS011;3549;42.162;24.726;2023-04-15T03:32:57;8.77;;;5.17;;
7017;SDS011;3549;42.162;24.726;2023-04-15T03:35:23;8.07;;;5.57;;
7017;SDS011;3549;42.162;24.726;2023-04-15T03:37:48;9.40;;;4.83;;
7017;SDS011;3549;42.162;24.726;2023-04-15T03:40:14;7.37;;;4.60;;
7017;SDS011;3549;42.162;24.726;2023-04-15T03:42:39;10.20;;;5.30;;
7017;SDS011;3549;42.162;24.726;2023-04-15T03:45:05;11.07;;;6.40;;
7017;SDS011;3549;42.162;24.726;2023-04-15T03:47:31;10.07;;;5.67;;
7017;SDS011;3549;42.162;24.726;2023-04-15T03:49:57;8.73;;;5.87;;
7017;SDS011;3549;42.162;24.726;2023-04-15T03:52:22;9.73;;;5.90;;
7017;SDS011;3549;42.162;24.726;2023-04-15T03:54:48;9.10;;;4.90;;
7017;SDS011;3549;42.162;24.726;2023-04-15T03:57:13;11.37;;;5.07;;
7017;SDS011;3549;42.162;24.726;2023-04-15T03:59:39;9.23;;;4.80;;
7017;SDS011;3549;42.162;24.726;2023-04-15T04:02:04;10.87;;;5.07;;
7017;SDS011;3549;42.162;24.726;2023-04-15T04:04:30;10.60;;;5.20;;
7017;SDS011;3549;42.162;24.726;2023-04-15T04:06:57;11.53;;;5.50;;
7017;SDS011;3549;42.162;24.726;2023-04-15T04:09:22;10.70;;;5.17;;
7017;SDS011;3549;42.162;24.726;2023-04-15T04:11:48;10.67;;;6.40;;
7017;SDS011;3549;42.162;24.726;2023-04-15T04:14:13;12.13;;;6.50;;
7017;SDS011;3549;42.162;24.726;2023-04-15T04:16:39;8.57;;;5.07;;
7017;SDS011;3549;42.162;24.726;2023-04-15T04:19:04;9.93;;;5.40;;
7017;SDS011;3549;42.162;24.726;2023-04-15T04:21:30;8.37;;;5.00;;
7017;SDS011;3549;42.162;24.726;2023-04-15T04:23:58;8.30;;;4.93;;
7017;SDS011;3549;42.162;24.726;2023-04-15T04:26:23;9.27;;;4.90;;
7017;SDS011;3549;42.162;24.726;2023-04-15T04:28:49;10.70;;;4.90;;
7017;SDS011;3549;42.162;24.726;2023-04-15T04:31:14;7.50;;;3.70;;
7017;SDS011;3549;42.162;24.726;2023-04-15T04:33:40;7.17;;;4.13;;
7017;SDS011;3549;42.162;24.726;2023-04-15T04:36:05;5.77;;;3.30;;
7017;SDS011;3549;42.162;24.726;2023-04-15T04:38:31;5.73;;;3.77;;
7017;SDS011;3549;42.162;24.726;2023-04-15T04:40:57;9.40;;;4.13;;
7017;SDS011;3549;42.162;24.726;2023-04-15T04:43:22;12.73;;;7.00;;
7017;SDS011;3549;42.162;24.726;2023-04-15T04:45:48;11.83;;;7.07;;
7017;SDS011;3549;42.162;24.726;2023-04-15T04:48:13;8.90;;;4.30;;
7017;SDS011;3549;42.162;24.726;2023-04-15T04:50:38;7.77;;;4.40;;
7017;SDS011;3549;42.162;24.726;2023-04-15T04:53:04;10.27;;;4.10;;
7017;SDS011;3549;42.162;24.726;2023-04-15T04:55:30;8.03;;;4.27;;
7017;SDS011;3549;42.162;24.726;2023-04-15T04:57:56;5.90;;;4.10;;
7017;SDS011;3549;42.162;24.726;2023-04-15T05:00:21;8.67;;;4.63;;
7017;SDS011;3549;42.162;24.726;2023-04-15T05:02:46;6.97;;;3.97;;
7017;SDS011;3549;42.162;24.726;2023-04-15T05:05:12;6.47;;;4.13;;
7017;SDS011;3549;42.162;24.726;2023-04-15T05:07:37;7.07;;;4.03;;
7017;SDS011;3549;42.162;24.726;2023-04-15T05:10:04;8.50;;;4.50;;
7017;SDS011;3549;42.162;24.726;2023-04-15T05:12:30;8.07;;;4.60;;
7017;SDS011;3549;42.162;24.726;2023-04-15T05:14:56;7.97;;;4.37;;
7017;SDS011;3549;42.162;24.726;2023-04-15T05:17:25;8.63;;;4.53;;
7017;SDS011;3549;42.162;24.726;2023-04-15T05:19:57;9.13;;;4.57;;
7017;SDS011;3549;42.162;24.726;2023-04-15T05:22:23;8.47;;;4.57;;
7017;SDS011;3549;42.162;24.726;2023-04-15T05:24:48;45.47;;;20.27;;
7017;SDS011;3549;42.162;24.726;2023-04-15T05:27:19;11.60;;;5.87;;
7017;SDS011;3549;42.162;24.726;2023-04-15T05:29:49;18.73;;;9.53;;
7017;SDS011;3549;42.162;24.726;2023-04-15T05:32:15;19.33;;;11.73;;
7017;SDS011;3549;42.162;24.726;2023-04-15T05:34:40;9.33;;;6.13;;
7017;SDS011;3549;42.162;24.726;2023-04-15T05:37:06;8.13;;;4.47;;
7017;SDS011;3549;42.162;24.726;2023-04-15T05:39:31;14.13;;;8.23;;
7017;SDS011;3549;42.162;24.726;2023-04-15T05:41:58;8.60;;;5.50;;
7017;SDS011;3549;42.162;24.726;2023-04-15T05:44:24;17.63;;;8.93;;
7017;SDS011;3549;42.162;24.726;2023-04-15T05:46:50;15.60;;;7.67;;
7017;SDS011;3549;42.162;24.726;2023-04-15T05:49:16;11.93;;;5.87;;
7017;SDS011;3549;42.162;24.726;2023-04-15T05:51:41;10.00;;;6.17;;
7017;SDS011;3549;42.162;24.726;2023-04-15T05:54:07;6.63;;;4.00;;
7017;SDS011;3549;42.162;24.726;2023-04-15T05:56:32;8.10;;;4.93;;
7017;SDS011;3549;42.162;24.726;2023-04-15T05:58:58;5.80;;;3.90;;
7017;SDS011;3549;42.162;24.726;2023-04-15T06:01:23;4.97;;;3.60;;
7017;SDS011;3549;42.162;24.726;2023-04-15T06:03:49;6.80;;;4.00;;
7017;SDS011;3549;42.162;24.726;2023-04-15T06:06:15;7.73;;;4.10;;
7017;SDS011;3549;42.162;24.726;2023-04-15T06:08:40;5.37;;;3.60;;
7017;SDS011;3549;42.162;24.726;2023-04-15T06:11:06;12.10;;;5.83;;
7017;SDS011;3549;42.162;24.726;2023-04-15T06:13:32;25.87;;;12.77;;
7017;SDS011;3549;42.162;24.726;2023-04-15T06:15:57;7.37;;;4.53;;
7017;SDS011;3549;42.162;24.726;2023-04-15T06:18:23;9.27;;;4.40;;
7017;SDS011;3549;42.162;24.726;2023-04-15T06:20:49;10.13;;;6.70;;
7017;SDS011;3549;42.162;24.726;2023-04-15T06:23:14;10.13;;;5.33;;
7017;SDS011;3549;42.162;24.726;2023-04-15T06:25:40;8.93;;;5.50;;
7017;SDS011;3549;42.162;24.726;2023-04-15T06:28:06;7.73;;;5.17;;
7017;SDS011;3549;42.162;24.726;2023-04-15T06:30:35;8.63;;;4.83;;
7017;SDS011;3549;42.162;24.726;2023-04-15T06:33:01;9.93;;;5.60;;
7017;SDS011;3549;42.162;24.726;2023-04-15T06:35:29;7.67;;;4.60;;
7017;SDS011;3549;42.162;24.726;2023-04-15T06:37:54;8.20;;;4.57;;
7017;SDS011;3549;42.162;24.726;2023-04-15T06:40:20;9.13;;;4.87;;
7017;SDS011;3549;42.162;24.726;2023-04-15T06:42:46;9.20;;;4.73;;
7017;SDS011;3549;42.162;24.726;2023-04-15T06:45:11;6.87;;;4.70;;
7017;SDS011;3549;42.162;24.726;2023-04-15T06:47:37;10.50;;;5.20;;
7017;SDS011;3549;42.162;24.726;2023-04-15T06:50:03;10.03;;;5.97;;
7017;SDS011;3549;42.162;24.726;2023-04-15T06:52:30;10.00;;;6.30;;
7017;SDS011;3549;42.162;24.726;2023-04-15T06:54:55;9.73;;;5.27;;
7017;SDS011;3549;42.162;24.726;2023-04-15T06:57:21;12.80;;;6.80;;
7017;SDS011;3549;42.162;24.726;2023-04-15T06:59:49;10.67;;;6.50;;
7017;SDS011;3549;42.162;24.726;2023-04-15T07:02:16;12.40;;;6.70;;
7017;SDS011;3549;42.162;24.726;2023-04-15T07:04:42;17.37;;;8.70;;
7017;SDS011;3549;42.162;24.726;2023-04-15T07:07:07;13.70;;;7.97;;
7017;SDS011;3549;42.162;24.726;2023-04-15T07:09:33;14.10;;;8.37;;
7017;SDS011;3549;42.162;24.726;2023-04-15T07:12:02;16.33;;;8.47;;
7017;SDS011;3549;42.162;24.726;2023-04-15T07:14:27;13.77;;;7.27;;
7017;SDS011;3549;42.162;24.726;2023-04-15T07:16:56;14.23;;;8.00;;
7017;SDS011;3549;42.162;24.726;2023-04-15T07:19:21;17.93;;;8.20;;
7017;SDS011;3549;42.162;24.726;2023-04-15T07:21:47;15.07;;;9.00;;
7017;SDS011;3549;42.162;24.726;2023-04-15T07:24:16;16.20;;;9.17;;
7017;SDS011;3549;42.162;24.726;2023-04-15T07:26:43;15.70;;;8.60;;
7017;SDS011;3549;42.162;24.726;2023-04-15T07:29:09;14.00;;;8.00;;
7017;SDS011;3549;42.162;24.726;2023-04-15T07:31:34;13.07;;;7.97;;
7017;SDS011;3549;42.162;24.726;2023-04-15T07:34:05;16.57;;;8.87;;
7017;SDS011;3549;42.162;24.726;2023-04-15T07:36:31;15.40;;;8.33;;
7017;SDS011;3549;42.162;24.726;2023-04-15T07:38:59;13.33;;;7.90;;
7017;SDS011;3549;42.162;24.726;2023-04-15T07:41:27;12.13;;;7.30;;
7017;SDS011;3549;42.162;24.726;2023-04-15T07:43:53;12.10;;;7.67;;
7017;SDS011;3549;42.162;24.726;2023-04-15T07:46:19;12.37;;;7.00;;
7017;SDS011;3549;42.162;24.726;2023-04-15T07:48:44;10.67;;;6.60;;
7017;SDS011;3549;42.162;24.726;2023-04-15T07:51:10;9.73;;;5.93;;
7017;SDS011;3549;42.162;24.726;2023-04-15T07:53:36;7.50;;;5.23;;
7017;SDS011;3549;42.162;24.726;2023-04-15T07:56:02;9.80;;;6.30;;
7017;SDS011;3549;42.162;24.726;2023-04-15T07:58:28;11.40;;;5.93;;
7017;SDS011;3549;42.162;24.726;2023-04-15T08:00:53;12.47;;;5.57;;
7017;SDS011;3549;42.162;24.726;2023-04-15T08:03:20;8.37;;;5.90;;
7017;SDS011;3549;42.162;24.726;2023-04-15T08:05:46;11.43;;;6.33;;
7017;SDS011;3549;42.162;24.726;2023-04-15T08:08:14;10.17;;;5.80;;
7017;SDS011;3549;42.162;24.726;2023-04-15T08:10:39;9.63;;;5.90;;
7017;SDS011;3549;42.162;24.726;2023-04-15T08:13:05;11.17;;;6.63;;
7017;SDS011;3549;42.162;24.726;2023-04-15T08:15:31;10.67;;;5.73;;
7017;SDS011;3549;42.162;24.726;2023-04-15T08:17:57;10.60;;;6.23;;
7017;SDS011;3549;42.162;24.726;2023-04-15T08:20:27;8.63;;;5.17;;
7017;SDS011;3549;42.162;24.726;2023-04-15T08:22:52;7.93;;;5.00;;
7017;SDS011;3549;42.162;24.726;2023-04-15T08:25:18;10.03;;;5.90;;
7017;SDS011;3549;42.162;24.726;2023-04-15T08:27:46;10.17;;;5.50;;
7017;SDS011;3549;42.162;24.726;2023-04-15T08:30:12;9.57;;;5.20;;
7017;SDS011;3549;42.162;24.726;2023-04-15T08:32:40;7.83;;;4.63;;
7017;SDS011;3549;42.162;24.726;2023-04-15T08:35:06;8.27;;;5.33;;
7017;SDS011;3549;42.162;24.726;2023-04-15T08:37:34;7.47;;;4.37;;
7017;SDS011;3549;42.162;24.726;2023-04-15T08:40:00;6.97;;;4.50;;
7017;SDS011;3549;42.162;24.726;2023-04-15T08:42:26;8.03;;;4.97;;
7017;SDS011;3549;42.162;24.726;2023-04-15T08:45:01;7.70;;;4.67;;
7017;SDS011;3549;42.162;24.726;2023-04-15T08:47:29;8.70;;;4.73;;
7017;SDS011;3549;42.162;24.726;2023-04-15T08:49:59;8.87;;;4.67;;
7017;SDS011;3549;42.162;24.726;2023-04-15T08:52:29;8.50;;;4.87;;
7017;SDS011;3549;42.162;24.726;2023-04-15T08:54:55;6.93;;;3.93;;
7017;SDS011;3549;42.162;24.726;2023-04-15T08:57:24;6.20;;;4.10;;
7017;SDS011;3549;42.162;24.726;2023-04-15T08:59:51;5.60;;;3.63;;
7017;SDS011;3549;42.162;24.726;2023-04-15T09:02:21;8.20;;;3.90;;
7017;SDS011;3549;42.162;24.726;2023-04-15T09:04:50;6.63;;;3.80;;
7017;SDS011;3549;42.162;24.726;2023-04-15T09:07:16;8.00;;;3.87;;
7017;SDS011;3549;42.162;24.726;2023-04-15T09:09:41;6.80;;;4.90;;
7017;SDS011;3549;42.162;24.726;2023-04-15T09:12:07;8.17;;;4.57;;
7017;SDS011;3549;42.162;24.726;2023-04-15T09:14:39;7.57;;;4.70;;
7017;SDS011;3549;42.162;24.726;2023-04-15T09:17:10;7.10;;;4.57;;
7017;SDS011;3549;42.162;24.726;2023-04-15T09:19:36;9.17;;;4.67;;
7017;SDS011;3549;42.162;24.726;2023-04-15T09:22:01;9.27;;;4.80;;
7017;SDS011;3549;42.162;24.726;2023-04-15T09:24:37;8.43;;;5.40;;
7017;SDS011;3549;42.162;24.726;2023-04-15T09:27:03;11.17;;;5.07;;
7017;SDS011;3549;42.162;24.726;2023-04-15T09:29:30;8.00;;;4.87;;
7017;SDS011;3549;42.162;24.726;2023-04-15T09:31:56;7.03;;;4.57;;
7017;SDS011;3549;42.162;24.726;2023-04-15T09:34:36;6.17;;;4.27;;
7017;SDS011;3549;42.162;24.726;2023-04-15T09:37:08;7.10;;;4.47;;
7017;SDS011;3549;42.162;24.726;2023-04-15T09:39:47;7.20;;;4.20;;
7017;SDS011;3549;42.162;24.726;2023-04-15T09:42:17;8.80;;;4.43;;
7017;SDS011;3549;42.162;24.726;2023-04-15T09:44:48;8.10;;;4.10;;
7017;SDS011;3549;42.162;24.726;2023-04-15T09:47:28;7.30;;;3.80;;
7017;SDS011;3549;42.162;24.726;2023-04-15T09:49:55;6.27;;;3.93;;
7017;SDS011;3549;42.162;24.726;2023-04-15T09:52:24;7.20;;;4.70;;
7017;SDS011;3549;42.162;24.726;2023-04-15T09:54:55;5.97;;;3.70;;
7017;SDS011;3549;42.162;24.726;2023-04-15T09:57:22;7.13;;;3.97;;
7017;SDS011;3549;42.162;24.726;2023-04-15T09:59:48;5.57;;;3.33;;
7017;SDS011;3549;42.162;24.726;2023-04-15T10:02:14;6.47;;;3.30;;
7017;SDS011;3549;42.162;24.726;2023-04-15T10:04:42;5.20;;;3.27;;
7017;SDS011;3549;42.162;24.726;2023-04-15T10:07:10;5.17;;;3.30;;
7017;SDS011;3549;42.162;24.726;2023-04-15T10:09:37;7.03;;;3.27;;
7017;SDS011;3549;42.162;24.726;2023-04-15T10:12:03;6.43;;;3.37;;
7017;SDS011;3549;42.162;24.726;2023-04-15T10:14:33;6.20;;;3.00;;
7017;SDS011;3549;42.162;24.726;2023-04-15T10:17:03;5.47;;;3.00;;
7017;SDS011;3549;42.162;24.726;2023-04-15T10:19:33;5.10;;;3.10;;
7017;SDS011;3549;42.162;24.726;2023-04-15T10:22:01;4.40;;;2.60;;
7017;SDS011;3549;42.162;24.726;2023-04-15T10:24:27;5.80;;;3.00;;
7017;SDS011;3549;42.162;24.726;2023-04-15T10:26:58;5.60;;;3.40;;
7017;SDS011;3549;42.162;24.726;2023-04-15T10:29:24;5.03;;;3.30;;
7017;SDS011;3549;42.162;24.726;2023-04-15T10:31:56;6.80;;;3.17;;
7017;SDS011;3549;42.162;24.726;2023-04-15T10:34:26;6.17;;;3.20;;
7017;SDS011;3549;42.162;24.726;2023-04-15T10:36:54;10.20;;;3.40;;
7017;SDS011;3549;42.162;24.726;2023-04-15T10:44:31;8.63;;;5.50;;
7017;SDS011;3549;42.162;24.726;2023-04-15T10:46:57;7.43;;;4.77;;
7017;SDS011;3549;42.162;24.726;2023-04-15T10:49:24;9.43;;;5.33;;
7017;SDS011;3549;42.162;24.726;2023-04-15T10:51:56;10.67;;;5.77;;
7017;SDS011;3549;42.162;24.726;2023-04-15T10:56:52;9.00;;;6.30;;
7017;SDS011;3549;42.162;24.726;2023-04-15T10:59:31;8.37;;;6.40;;
7017;SDS011;3549;42.162;24.726;2023-04-15T11:02:01;7.30;;;5.50;;
7017;SDS011;3549;42.162;24.726;2023-04-15T11:12:53;8.00;;;5.80;;
7017;SDS011;3549;42.162;24.726;2023-04-15T11:15:42;9.00;;;5.97;;
7017;SDS011;3549;42.162;24.726;2023-04-15T11:18:11;7.03;;;5.20;;
7017;SDS011;3549;42.162;24.726;2023-04-15T11:20:41;6.77;;;4.70;;
7017;SDS011;3549;42.162;24.726;2023-04-15T11:23:11;9.47;;;4.87;;
7017;SDS011;3549;42.162;24.726;2023-04-15T11:25:38;7.43;;;5.00;;
7017;SDS011;3549;42.162;24.726;2023-04-15T11:28:03;7.07;;;4.70;;
7017;SDS011;3549;42.162;24.726;2023-04-15T11:30:30;8.00;;;5.10;;
7017;SDS011;3549;42.162;24.726;2023-04-15T11:33:02;7.43;;;4.87;;
7017;SDS011;3549;42.162;24.726;2023-04-15T11:35:32;7.37;;;5.00;;
7017;SDS011;3549;42.162;24.726;2023-04-15T11:38:05;8.33;;;5.10;;
7017;SDS011;3549;42.162;24.726;2023-04-15T11:40:32;8.10;;;5.37;;
7017;SDS011;3549;42.162;24.726;2023-04-15T11:43:18;8.13;;;5.43;;
7017;SDS011;3549;42.162;24.726;2023-04-15T11:45:56;6.57;;;5.05;;
7017;SDS011;3549;42.162;24.726;2023-04-15T11:48:24;7.32;;;4.88;;
7017;SDS011;3549;42.162;24.726;2023-04-15T11:50:54;7.88;;;4.53;;
7017;SDS011;3549;42.162;24.726;2023-04-15T11:53:22;7.57;;;4.80;;
7017;SDS011;3549;42.162;24.726;2023-04-15T11:55:49;6.05;;;4.70;;
7017;SDS011;3549;42.162;24.726;2023-04-15T11:58:24;9.57;;;4.90;;
7017;SDS011;3549;42.162;24.726;2023-04-15T12:00:57;5.88;;;4.40;;
7017;SDS011;3549;42.162;24.726;2023-04-15T12:03:30;5.38;;;4.15;;
7017;SDS011;3549;42.162;24.726;2023-04-15T12:06:09;5.97;;;4.60;;
7017;SDS011;3549;42.162;24.726;2023-04-15T12:08:47;5.78;;;4.40;;
7017;SDS011;3549;42.162;24.726;2023-04-15T12:13:57;6.80;;;3.78;;
7017;SDS011;3549;42.162;24.726;2023-04-15T12:16:27;7.28;;;4.10;;
7017;SDS011;3549;42.162;24.726;2023-04-15T12:18:55;5.60;;;3.60;;
7017;SDS011;3549;42.162;24.726;2023-04-15T12:21:23;6.25;;;4.32;;
7017;SDS011;3549;42.162;24.726;2023-04-15T12:23:50;7.07;;;3.80;;
7017;SDS011;3549;42.162;24.726;2023-04-15T12:26:17;6.07;;;3.45;;
7017;SDS011;3549;42.162;24.726;2023-04-15T12:28:52;3.88;;;3.10;;
7017;SDS011;3549;42.162;24.726;2023-04-15T12:31:33;4.38;;;2.70;;
7017;SDS011;3549;42.162;24.726;2023-04-15T12:34:00;5.85;;;3.00;;
7017;SDS011;3549;42.162;24.726;2023-04-15T12:36:27;6.60;;;3.40;;
7017;SDS011;3549;42.162;24.726;2023-04-15T12:38:55;4.68;;;3.20;;
7017;SDS011;3549;42.162;24.726;2023-04-15T12:41:21;5.72;;;2.88;;
7017;SDS011;3549;42.162;24.726;2023-04-15T12:43:48;4.90;;;2.92;;
7017;SDS011;3549;42.162;24.726;2023-04-15T12:46:14;5.38;;;3.05;;
7017;SDS011;3549;42.162;24.726;2023-04-15T12:48:40;5.25;;;2.95;;
7017;SDS011;3549;42.162;24.726;2023-04-15T12:51:05;4.53;;;2.90;;
7017;SDS011;3549;42.162;24.726;2023-04-15T12:53:31;4.78;;;2.80;;
7017;SDS011;3549;42.162;24.726;2023-04-15T12:55:56;5.90;;;3.00;;
7017;SDS011;3549;42.162;24.726;2023-04-15T12:58:22;4.30;;;2.83;;
7017;SDS011;3549;42.162;24.726;2023-04-15T13:00:47;4.15;;;2.60;;
7017;SDS011;3549;42.162;24.726;2023-04-15T13:03:13;4.38;;;2.55;;
7017;SDS011;3549;42.162;24.726;2023-04-15T13:05:39;4.53;;;3.00;;
7017;SDS011;3549;42.162;24.726;2023-04-15T13:08:05;5.85;;;2.90;;
7017;SDS011;3549;42.162;24.726;2023-04-15T13:10:30;3.88;;;2.50;;
7017;SDS011;3549;42.162;24.726;2023-04-15T13:12:56;5.00;;;2.57;;
7017;SDS011;3549;42.162;24.726;2023-04-15T13:15:22;4.73;;;2.70;;
7017;SDS011;3549;42.162;24.726;2023-04-15T13:17:48;5.50;;;2.87;;
7017;SDS011;3549;42.162;24.726;2023-04-15T13:20:14;5.57;;;3.20;;
7017;SDS011;3549;42.162;24.726;2023-04-15T13:22:39;5.50;;;3.03;;
7017;SDS011;3549;42.162;24.726;2023-04-15T13:25:05;6.93;;;2.83;;
7017;SDS011;3549;42.162;24.726;2023-04-15T13:27:34;6.33;;;2.80;;
7017;SDS011;3549;42.162;24.726;2023-04-15T13:29:59;5.90;;;3.27;;
7017;SDS011;3549;42.162;24.726;2023-04-15T13:32:27;4.33;;;2.60;;
7017;SDS011;3549;42.162;24.726;2023-04-15T13:34:53;4.72;;;2.60;;
7017;SDS011;3549;42.162;24.726;2023-04-15T13:37:21;4.63;;;2.50;;
7017;SDS011;3549;42.162;24.726;2023-04-15T13:39:53;4.32;;;2.90;;
7017;SDS011;3549;42.162;24.726;2023-04-15T13:42:20;5.68;;;3.20;;
7017;SDS011;3549;42.162;24.726;2023-04-15T13:44:45;7.18;;;2.95;;
7017;SDS011;3549;42.162;24.726;2023-04-15T13:47:11;5.20;;;3.00;;
7017;SDS011;3549;42.162;24.726;2023-04-15T13:49:38;5.10;;;2.70;;
7017;SDS011;3549;42.162;24.726;2023-04-15T13:52:04;5.70;;;2.90;;
7017;SDS011;3549;42.162;24.726;2023-04-15T13:54:30;4.53;;;2.75;;
7017;SDS011;3549;42.162;24.726;2023-04-15T13:56:55;4.63;;;2.80;;
7017;SDS011;3549;42.162;24.726;2023-04-15T13:59:22;4.13;;;2.65;;
7017;SDS011;3549;42.162;24.726;2023-04-15T14:01:47;5.10;;;2.87;;
7017;SDS011;3549;42.162;24.726;2023-04-15T14:04:13;5.83;;;2.63;;
7017;SDS011;3549;42.162;24.726;2023-04-15T14:06:38;5.13;;;2.60;;
7017;SDS011;3549;42.162;24.726;2023-04-15T14:09:04;5.83;;;3.03;;
7017;SDS011;3549;42.162;24.726;2023-04-15T14:11:30;4.07;;;2.60;;
7017;SDS011;3549;42.162;24.726;2023-04-15T14:13:55;4.40;;;2.57;;
7017;SDS011;3549;42.162;24.726;2023-04-15T14:16:21;4.37;;;2.80;;
7017;SDS011;3549;42.162;24.726;2023-04-15T14:18:46;5.43;;;2.60;;
7017;SDS011;3549;42.162;24.726;2023-04-15T14:21:12;4.33;;;2.70;;
7017;SDS011;3549;42.162;24.726;2023-04-15T14:23:37;4.10;;;2.50;;
7017;SDS011;3549;42.162;24.726;2023-04-15T14:26:03;5.03;;;3.00;;
7017;SDS011;3549;42.162;24.726;2023-04-15T14:28:28;6.10;;;2.60;;
7017;SDS011;3549;42.162;24.726;2023-04-15T14:30:54;5.53;;;3.45;;
7017;SDS011;3549;42.162;24.726;2023-04-15T14:33:20;3.83;;;2.90;;
7017;SDS011;3549;42.162;24.726;2023-04-15T14:35:45;5.85;;;2.88;;
7017;SDS011;3549;42.162;24.726;2023-04-15T14:38:10;5.78;;;3.30;;
7017;SDS011;3549;42.162;24.726;2023-04-15T14:40:36;5.88;;;2.63;;
7017;SDS011;3549;42.162;24.726;2023-04-15T14:43:02;5.07;;;2.47;;
7017;SDS011;3549;42.162;24.726;2023-04-15T14:45:28;5.13;;;2.90;;
7017;SDS011;3549;42.162;24.726;2023-04-15T14:47:55;4.13;;;2.63;;
7017;SDS011;3549;42.162;24.726;2023-04-15T14:50:20;5.93;;;2.70;;
7017;SDS011;3549;42.162;24.726;2023-04-15T14:52:46;6.07;;;2.90;;
7017;SDS011;3549;42.162;24.726;2023-04-15T14:55:11;4.38;;;2.55;;
7017;SDS011;3549;42.162;24.726;2023-04-15T14:57:38;5.43;;;3.05;;
7017;SDS011;3549;42.162;24.726;2023-04-15T15:00:05;6.40;;;2.88;;
7017;SDS011;3549;42.162;24.726;2023-04-15T15:02:33;5.07;;;2.67;;
7017;SDS011;3549;42.162;24.726;2023-04-15T15:05:00;6.65;;;2.95;;
7017;SDS011;3549;42.162;24.726;2023-04-15T15:07:26;6.55;;;2.85;;
7017;SDS011;3549;42.162;24.726;2023-04-15T15:09:52;7.15;;;3.05;;
7017;SDS011;3549;42.162;24.726;2023-04-15T15:12:18;3.63;;;2.63;;
7017;SDS011;3549;42.162;24.726;2023-04-15T15:14:43;5.47;;;3.00;;
7017;SDS011;3549;42.162;24.726;2023-04-15T15:17:09;7.57;;;2.90;;